sensor_id;sensor_type;location;lat;lon;timestamp;pressure;altitude;pressure_sealevel;temperature;humidity
6829;BME280;17930;48.592;8.868;2023-02-24T00:01:53;96310.25;;;7.73;100.00
6829;BME280;17930;48.592;8.868;2023-02-24T00:04:25;96301.44;;;7.69;100.00
6829;BME280;17930;48.592;8.868;2023-02-24T00:06:52;96306.91;;;7.58;100.00
6829;BME280;17930;48.592;8.868;2023-02-24T00:09:22;96309.50;;;7.53;100.00
6829;BME280;17930;48.592;8.868;2023-02-24T00:11:53;96313.41;;;7.45;100.00
6829;BME280;17930;48.592;8.868;2023-02-24T00:14:22;96302.81;;;7.42;100.00
6829;BME280;17930;48.592;8.868;2023-02-24T00:16:50;96304.03;;;7.69;100.00
6829;BME280;17930;48.592;8.868;2023-02-24T00:19:19;96306.56;;;7.84;100.00
6829;BME280;17930;48.592;8.868;2023-02-24T00:21:47;96305.06;;;7.73;100.00
6829;BME280;17930;48.592;8.868;2023-02-24T00:24:14;96304.56;;;7.51;100.00
6829;BME280;17930;48.592;8.868;2023-02-24T00:26:42;96303.56;;;7.47;100.00
6829;BME280;17930;48.592;8.868;2023-02-24T00:29:11;96300.72;;;7.49;100.00
6829;BME280;17930;48.592;8.868;2023-02-24T00:31:38;96296.25;;;7.59;100.00
6829;BME280;17930;48.592;8.868;2023-02-24T00:34:07;96300.97;;;7.57;100.00
6829;BME280;17930;48.592;8.868;2023-02-24T00:36:34;96299.38;;;7.51;100.00
6829;BME280;17930;48.592;8.868;2023-02-24T00:39:05;96298.91;;;7.39;100.00
6829;BME280;17930;48.592;8.868;2023-02-24T00:41:35;96297.63;;;7.42;100.00
6829;BME280;17930;48.592;8.868;2023-02-24T00:44:05;96297.34;;;7.38;100.00
6829;BME280;17930;48.592;8.868;2023-02-24T00:46:35;96287.75;;;7.39;100.00
6829;BME280;17930;48.592;8.868;2023-02-24T00:49:03;96290.06;;;7.50;100.00
6829;BME280;17930;48.592;8.868;2023-02-24T00:51:34;96289.06;;;7.31;100.00
6829;BME280;17930;48.592;8.868;2023-02-24T00:54:02;96279.75;;;7.30;100.00
6829;BME280;17930;48.592;8.868;2023-02-24T00:56:29;96279.44;;;7.37;100.00
6829;BME280;17930;48.592;8.868;2023-02-24T00:58:57;96275.00;;;7.57;100.00
6829;BME280;17930;48.592;8.868;2023-02-24T01:01:30;96268.31;;;7.36;100.00
6829;BME280;17930;48.592;8.868;2023-02-24T01:03:58;96268.06;;;7.23;100.00
6829;BME280;17930;48.592;8.868;2023-02-24T01:06:27;96267.78;;;7.24;100.00
6829;BME280;17930;48.592;8.868;2023-02-24T01:08:55;96269.59;;;7.34;100.00
6829;BME280;17930;48.592;8.868;2023-02-24T01:11:24;96264.72;;;7.27;100.00
6829;BME280;17930;48.592;8.868;2023-02-24T01:14:12;96262.63;;;7.29;100.00
6829;BME280;17930;48.592;8.868;2023-02-24T01:16:40;96257.94;;;7.26;100.00
6829;BME280;17930;48.592;8.868;2023-02-24T01:19:09;96253.81;;;7.20;100.00
6829;BME280;17930;48.592;8.868;2023-02-24T01:21:37;96259.00;;;7.30;100.00
6829;BME280;17930;48.592;8.868;2023-02-24T01:24:04;96252.72;;;7.46;100.00
6829;BME280;17930;48.592;8.868;2023-02-24T01:26:31;96249.03;;;7.67;100.00
6829;BME280;17930;48.592;8.868;2023-02-24T01:28:58;96259.94;;;7.54;100.00
6829;BME280;17930;48.592;8.868;2023-02-24T01:31:25;96261.25;;;7.47;100.00
6829;BME280;17930;48.592;8.868;2023-02-24T01:33:54;96269.59;;;7.34;100.00
6829;BME280;17930;48.592;8.868;2023-02-24T01:36:23;96258.97;;;7.35;100.00
6829;BME280;17930;48.592;8.868;2023-02-24T01:38:50;96249.63;;;7.39;100.00
6829;BME280;17930;48.592;8.868;2023-02-24T01:41:19;96256.38;;;7.40;100.00
6829;BME280;17930;48.592;8.868;2023-02-24T01:43:54;96255.34;;;7.31;100.00
6829;BME280;17930;48.592;8.868;2023-02-24T01:46:23;96251.75;;;7.27;100.00
6829;BME280;17930;48.592;8.868;2023-02-24T01:48:51;96244.38;;;7.54;100.00
6829;BME280;17930;48.592;8.868;2023-02-24T01:51:20;96238.69;;;7.57;100.00
6829;BME280;17930;48.592;8.868;2023-02-24T01:53:47;96239.22;;;7.44;100.00
6829;BME280;17930;48.592;8.868;2023-02-24T01:56:15;96240.78;;;7.45;100.00
6829;BME280;17930;48.592;8.868;2023-02-24T01:58:42;96242.34;;;7.46;100.00
6829;BME280;17930;48.592;8.868;2023-02-24T02:01:09;96237.69;;;7.38;100.00
6829;BME280;17930;48.592;8.868;2023-02-24T02:03:38;96232.53;;;7.33;100.00
6829;BME280;17930;48.592;8.868;2023-02-24T02:06:09;96233.31;;;7.29;100.00
6829;BME280;17930;48.592;8.868;2023-02-24T02:08:40;96229.94;;;7.28;100.00
6829;BME280;17930;48.592;8.868;2023-02-24T02:11:09;96232.53;;;7.33;100.00
6829;BME280;17930;48.592;8.868;2023-02-24T02:13:40;96221.63;;;7.31;100.00
6829;BME280;17930;48.592;8.868;2023-02-24T02:16:26;96228.38;;;7.37;100.00
6829;BME280;17930;48.592;8.868;2023-02-24T02:19:10;96232.22;;;7.40;100.00
6829;BME280;17930;48.592;8.868;2023-02-24T02:21:58;96227.03;;;7.40;100.00
6829;BME280;17930;48.592;8.868;2023-02-24T02:24:37;96217.72;;;7.39;100.00
6829;BME280;17930;48.592;8.868;2023-02-24T02:27:33;96222.91;;;7.34;100.00
6829;BME280;17930;48.592;8.868;2023-02-24T02:30:43;96210.19;;;7.42;100.00
6829;BME280;17930;48.592;8.868;2023-02-24T02:36:29;96201.38;;;7.43;100.00
6829;BME280;17930;48.592;8.868;2023-02-24T02:39:06;96196.72;;;7.40;100.00
6829;BME280;17930;48.592;8.868;2023-02-24T02:41:45;96201.09;;;7.40;100.00
6829;BME280;17930;48.592;8.868;2023-02-24T02:44:19;96196.19;;;7.43;100.00
6829;BME280;17930;48.592;8.868;2023-02-24T02:46:51;96195.13;;;7.44;100.00
6829;BME280;17930;48.592;8.868;2023-02-24T02:49:25;96191.00;;;7.38;100.00
6829;BME280;17930;48.592;8.868;2023-02-24T02:52:00;96182.16;;;7.44;100.00
6829;BME280;17930;48.592;8.868;2023-02-24T02:54:34;96185.06;;;7.23;100.00
6829;BME280;17930;48.592;8.868;2023-02-24T02:57:10;96192.13;;;7.08;100.00
6829;BME280;17930;48.592;8.868;2023-02-24T02:59:43;96183.84;;;7.06;100.00
6829;BME280;17930;48.592;8.868;2023-02-24T03:02:15;96190.31;;;7.03;100.00
6829;BME280;17930;48.592;8.868;2023-02-24T03:04:46;96186.41;;;7.20;100.00
6829;BME280;17930;48.592;8.868;2023-02-24T03:07:19;96185.06;;;7.23;100.00
6829;BME280;17930;48.592;8.868;2023-02-24T03:09:49;96180.88;;;7.37;100.00
6829;BME280;17930;48.592;8.868;2023-02-24T03:12:20;96180.66;;;7.28;100.00
6829;BME280;17930;48.592;8.868;2023-02-24T03:14:51;96190.50;;;7.36;100.00
6829;BME280;17930;48.592;8.868;2023-02-24T03:17:23;96182.75;;;7.21;100.00
6829;BME280;17930;48.592;8.868;2023-02-24T03:19:56;96177.31;;;7.13;100.00
6829;BME280;17930;48.592;8.868;2023-02-24T03:22:31;96182.50;;;7.13;100.00
6829;BME280;17930;48.592;8.868;2023-02-24T03:25:00;96182.25;;;7.14;100.00
6829;BME280;17930;48.592;8.868;2023-02-24T03:27:31;96176.50;;;7.37;100.00
6829;BME280;17930;48.592;8.868;2023-02-24T03:30:05;96177.97;;;7.48;100.00
6829;BME280;17930;48.592;8.868;2023-02-24T03:32:37;96180.63;;;7.43;100.00
6829;BME280;17930;48.592;8.868;2023-02-24T03:35:18;96166.31;;;7.46;100.00
6829;BME280;17930;48.592;8.868;2023-02-24T03:37:48;96172.84;;;7.38;100.00
6829;BME280;17930;48.592;8.868;2023-02-24T03:40:18;96165.72;;;7.63;100.00
6829;BME280;17930;48.592;8.868;2023-02-24T03:42:47;96161.41;;;7.44;100.00
6829;BME280;17930;48.592;8.868;2023-02-24T03:45:17;96163.50;;;7.42;100.00
6829;BME280;17930;48.592;8.868;2023-02-24T03:47:47;96168.13;;;7.50;100.00
6829;BME280;17930;48.592;8.868;2023-02-24T03:50:17;96160.94;;;7.37;100.00
6829;BME280;17930;48.592;8.868;2023-02-24T03:52:50;96160.91;;;7.42;100.00
6829;BME280;17930;48.592;8.868;2023-02-24T03:55:30;96176.69;;;7.51;100.00
6829;BME280;17930;48.592;8.868;2023-02-24T03:58:09;96166.78;;;7.58;100.00
6829;BME280;17930;48.592;8.868;2023-02-24T04:00:45;96163.34;;;7.72;100.00
6829;BME280;17930;48.592;8.868;2023-02-24T04:03:22;96154.53;;;7.73;100.00
6829;BME280;17930;48.592;8.868;2023-02-24T04:06:00;96158.75;;;7.59;100.00
6829;BME280;17930;48.592;8.868;2023-02-24T04:08:37;96160.84;;;7.52;100.00
6829;BME280;17930;48.592;8.868;2023-02-24T04:11:11;96149.44;;;7.53;100.00
6829;BME280;17930;48.592;8.868;2023-02-24T04:13:44;96153.81;;;7.58;100.00
6829;BME280;17930;48.592;8.868;2023-02-24T04:16:15;96148.16;;;7.46;100.00
6829;BME280;17930;48.592;8.868;2023-02-24T04:18:53;96146.63;;;7.40;100.00
6829;BME280;17930;48.592;8.868;2023-02-24T04:21:24;96141.25;;;7.26;100.00
6829;BME280;17930;48.592;8.868;2023-02-24T04:23:54;96151.09;;;7.24;100.00
6829;BME280;17930;48.592;8.868;2023-02-24T04:26:23;96146.09;;;7.48;100.00
6829;BME280;17930;48.592;8.868;2023-02-24T04:28:51;96141.16;;;7.46;100.00
6829;BME280;17930;48.592;8.868;2023-02-24T04:31:19;96136.94;;;7.60;100.00
6829;BME280;17930;48.592;8.868;2023-02-24T04:33:48;96134.09;;;7.57;100.00
6829;BME280;17930;48.592;8.868;2023-02-24T04:36:19;96133.13;;;7.43;100.00
6829;BME280;17930;48.592;8.868;2023-02-24T04:38:46;96136.03;;;7.36;100.00
6829;BME280;17930;48.592;8.868;2023-02-24T04:41:15;96117.88;;;7.31;100.00
6829;BME280;17930;48.592;8.868;2023-02-24T04:43:46;96125.16;;;7.29;100.00
6829;BME280;17930;48.592;8.868;2023-02-24T04:46:13;96126.09;;;7.48;100.00
6829;BME280;17930;48.592;8.868;2023-02-24T04:48:41;96121.16;;;7.52;100.00
6829;BME280;17930;48.592;8.868;2023-02-24T04:51:07;96125.84;;;7.50;100.00
6829;BME280;17930;48.592;8.868;2023-02-24T04:53:34;96127.72;;;7.34;100.00
6829;BME280;17930;48.592;8.868;2023-02-24T04:56:04;96119.47;;;7.27;100.00
6829;BME280;17930;48.592;8.868;2023-02-24T04:58:36;96119.94;;;7.34;100.00
6829;BME280;17930;48.592;8.868;2023-02-24T05:01:07;96118.84;;;7.50;100.00
6829;BME280;17930;48.592;8.868;2023-02-24T05:03:36;96109.94;;;7.61;100.00
6829;BME280;17930;48.592;8.868;2023-02-24T05:06:07;96106.88;;;7.54;100.00
6829;BME280;17930;48.592;8.868;2023-02-24T05:08:38;96113.34;;;7.57;100.00
6829;BME280;17930;48.592;8.868;2023-02-24T05:11:05;96103.78;;;7.52;100.00
6829;BME280;17930;48.592;8.868;2023-02-24T05:13:34;96100.69;;;7.50;100.00
6829;BME280;17930;48.592;8.868;2023-02-24T05:16:04;96096.59;;;7.39;100.00
6829;BME280;17930;48.592;8.868;2023-02-24T05:18:31;96096.28;;;7.46;100.00
6829;BME280;17930;48.592;8.868;2023-02-24T05:21:04;96095.22;;;7.52;100.00
6829;BME280;17930;48.592;8.868;2023-02-24T05:23:52;96088.03;;;7.39;100.00
6829;BME280;17930;48.592;8.868;2023-02-24T05:26:21;96081.50;;;7.46;100.00
6829;BME280;17930;48.592;8.868;2023-02-24T05:28:53;96082.00;;;7.53;100.00
6829;BME280;17930;48.592;8.868;2023-02-24T05:31:23;96079.41;;;7.53;100.00
6829;BME280;17930;48.592;8.868;2023-02-24T05:33:53;96073.56;;;7.71;100.00
6829;BME280;17930;48.592;8.868;2023-02-24T05:36:23;96071.53;;;7.63;100.00
6829;BME280;17930;48.592;8.868;2023-02-24T05:38:51;96071.41;;;7.83;100.00
6829;BME280;17930;48.592;8.868;2023-02-24T05:41:24;96064.19;;;7.75;100.00
6829;BME280;17930;48.592;8.868;2023-02-24T05:43:58;96063.22;;;7.66;100.00
6829;BME280;17930;48.592;8.868;2023-02-24T05:46:31;96067.94;;;7.54;100.00
6829;BME280;17930;48.592;8.868;2023-02-24T05:48:59;96066.47;;;7.43;100.00
6829;BME280;17930;48.592;8.868;2023-02-24T05:51:27;96064.25;;;7.65;100.00
6829;BME280;17930;48.592;8.868;2023-02-24T05:54:00;96059.59;;;7.62;100.00
6829;BME280;17930;48.592;8.868;2023-02-24T05:56:29;96063.56;;;7.55;100.00
6829;BME280;17930;48.592;8.868;2023-02-24T05:58:58;96050.38;;;7.46;100.00
6829;BME280;17930;48.592;8.868;2023-02-24T06:01:27;96050.38;;;7.46;100.00
6829;BME280;17930;48.592;8.868;2023-02-24T06:03:57;96050.13;;;7.43;100.00
6829;BME280;17930;48.592;8.868;2023-02-24T06:06:32;96048.34;;;7.38;100.00
6829;BME280;17930;48.592;8.868;2023-02-24T06:09:01;96051.94;;;7.47;100.00
6829;BME280;17930;48.592;8.868;2023-02-24T06:11:32;96050.44;;;7.74;100.00
6829;BME280;17930;48.592;8.868;2023-02-24T06:14:00;96039.31;;;7.69;100.00
6829;BME280;17930;48.592;8.868;2023-02-24T06:16:28;96033.94;;;7.56;100.00
6829;BME280;17930;48.592;8.868;2023-02-24T06:18:55;96035.63;;;7.42;100.00
6829;BME280;17930;48.592;8.868;2023-02-24T06:21:23;96038.50;;;7.35;100.00
6829;BME280;17930;48.592;8.868;2023-02-24T06:23:50;96033.03;;;7.37;100.00
6829;BME280;17930;48.592;8.868;2023-02-24T06:26:17;96038.97;;;7.42;100.00
6829;BME280;17930;48.592;8.868;2023-02-24T06:28:44;96037.84;;;7.58;100.00
6829;BME280;17930;48.592;8.868;2023-02-24T06:31:13;96033.78;;;7.42;100.00
6829;BME280;17930;48.592;8.868;2023-02-24T06:33:40;96029.56;;;7.56;100.00
6829;BME280;17930;48.592;8.868;2023-02-24T06:36:07;96033.94;;;7.61;100.00
6829;BME280;17930;48.592;8.868;2023-02-24T06:38:35;96031.41;;;7.51;100.00
6829;BME280;17930;48.592;8.868;2023-02-24T06:41:04;96031.75;;;7.39;100.00
6829;BME280;17930;48.592;8.868;2023-02-24T06:43:35;96038.91;;;7.52;100.00
6829;BME280;17930;48.592;8.868;2023-02-24T06:46:03;96030.38;;;7.47;100.00
6829;BME280;17930;48.592;8.868;2023-02-24T06:48:32;96036.94;;;7.34;100.00
6829;BME280;17930;48.592;8.868;2023-02-24T06:51:03;96030.72;;;7.35;100.00
6829;BME280;17930;48.592;8.868;2023-02-24T06:53:30;96030.88;;;7.54;100.00
6829;BME280;17930;48.592;8.868;2023-02-24T06:56:03;96031.19;;;7.47;100.00
6829;BME280;17930;48.592;8.868;2023-02-24T06:58:39;96030.66;;;7.50;100.00
6829;BME280;17930;48.592;8.868;2023-02-24T07:01:09;96031.63;;;7.54;100.00
6829;BME280;17930;48.592;8.868;2023-02-24T07:03:38;96029.00;;;7.59;100.00
6829;BME280;17930;48.592;8.868;2023-02-24T07:06:11;96019.72;;;7.53;100.00
6829;BME280;17930;48.592;8.868;2023-02-24T07:08:46;96025.47;;;7.45;100.00
6829;BME280;17930;48.592;8.868;2023-02-24T07:11:13;96021.78;;;7.51;100.00
6829;BME280;17930;48.592;8.868;2023-02-24T07:13:42;96034.34;;;7.39;100.00
6829;BME280;17930;48.592;8.868;2023-02-24T07:16:09;96034.34;;;7.39;100.00
6829;BME280;17930;48.592;8.868;2023-02-24T07:18:37;96036.44;;;7.37;100.00
6829;BME280;17930;48.592;8.868;2023-02-24T07:21:07;96028.91;;;7.36;100.00
6829;BME280;17930;48.592;8.868;2023-02-24T07:23:36;96026.56;;;7.34;100.00
6829;BME280;17930;48.592;8.868;2023-02-24T07:26:07;96031.06;;;7.24;100.00
6829;BME280;17930;48.592;8.868;2023-02-24T07:28:36;96032.00;;;7.38;100.00
6829;BME280;17930;48.592;8.868;2023-02-24T07:31:05;96031.69;;;7.44;100.00
6829;BME280;17930;48.592;8.868;2023-02-24T07:33:34;96036.66;;;7.41;100.00
6829;BME280;17930;48.592;8.868;2023-02-24T07:36:04;96030.16;;;7.43;100.00
6829;BME280;17930;48.592;8.868;2023-02-24T07:38:34;96034.09;;;7.36;100.00
6829;BME280;17930;48.592;8.868;2023-02-24T07:41:01;96031.25;;;7.37;100.00
6829;BME280;17930;48.592;8.868;2023-02-24T07:43:28;96023.97;;;7.39;100.00
6829;BME280;17930;48.592;8.868;2023-02-24T07:45:56;96014.09;;;7.41;100.00
6829;BME280;17930;48.592;8.868;2023-02-24T07:48:22;96012.22;;;7.47;100.00
6829;BME280;17930;48.592;8.868;2023-02-24T07:50:50;96008.63;;;7.43;100.00
6829;BME280;17930;48.592;8.868;2023-02-24T07:53:18;96005.53;;;7.41;100.00
6829;BME280;17930;48.592;8.868;2023-02-24T07:55:45;96010.88;;;7.54;100.00
6829;BME280;17930;48.592;8.868;2023-02-24T07:58:11;96014.47;;;7.58;100.00
6829;BME280;17930;48.592;8.868;2023-02-24T08:00:38;96010.09;;;7.54;100.00
6829;BME280;17930;48.592;8.868;2023-02-24T08:03:28;96006.94;;;7.62;100.00
6829;BME280;17930;48.592;8.868;2023-02-24T08:05:56;96008.06;;;7.46;100.00
6829;BME280;17930;48.592;8.868;2023-02-24T08:08:38;96005.75;;;7.44;100.00
6829;BME280;17930;48.592;8.868;2023-02-24T08:11:23;96006.69;;;7.58;100.00
6829;BME280;17930;48.592;8.868;2023-02-24T08:13:51;96006.69;;;7.58;100.00
6829;BME280;17930;48.592;8.868;2023-02-24T08:16:18;96002.81;;;7.56;100.00
6829;BME280;17930;48.592;8.868;2023-02-24T08:18:45;96004.22;;;7.43;100.00
6829;BME280;17930;48.592;8.868;2023-02-24T08:21:13;95997.94;;;7.49;100.00
6829;BME280;17930;48.592;8.868;2023-02-24T08:23:42;95995.84;;;7.51;100.00
6829;BME280;17930;48.592;8.868;2023-02-24T08:26:10;95987.84;;;7.48;100.00
6829;BME280;17930;48.592;8.868;2023-02-24T08:28:37;95994.78;;;7.57;100.00
6829;BME280;17930;48.592;8.868;2023-02-24T08:31:04;95986.94;;;7.67;100.00
6829;BME280;17930;48.592;8.868;2023-02-24T08:33:31;95992.47;;;7.84;100.00
6829;BME280;17930;48.592;8.868;2023-02-24T08:36:02;95987.94;;;7.99;100.00
6829;BME280;17930;48.592;8.868;2023-02-24T08:38:30;95983.13;;;8.16;100.00
6829;BME280;17930;48.592;8.868;2023-02-24T08:41:13;95974.72;;;8.47;100.00
6829;BME280;17930;48.592;8.868;2023-02-24T08:43:42;95973.56;;;8.58;100.00
6829;BME280;17930;48.592;8.868;2023-02-24T08:46:16;95969.53;;;8.70;100.00
6829;BME280;17930;48.592;8.868;2023-02-24T08:48:51;95970.25;;;8.76;100.00
6829;BME280;17930;48.592;8.868;2023-02-24T08:51:22;95961.47;;;8.72;100.00
6829;BME280;17930;48.592;8.868;2023-02-24T08:53:54;95966.81;;;8.80;100.00
6829;BME280;17930;48.592;8.868;2023-02-24T08:56:27;95951.22;;;8.99;100.00
6829;BME280;17930;48.592;8.868;2023-02-24T08:58:55;95953.31;;;8.97;100.00
6829;BME280;17930;48.592;8.868;2023-02-24T09:01:25;95955.25;;;9.10;100.00
6829;BME280;17930;48.592;8.868;2023-02-24T09:03:54;95947.59;;;9.00;100.00
6829;BME280;17930;48.592;8.868;2023-02-24T09:06:25;95949.25;;;8.91;100.00
6829;BME280;17930;48.592;8.868;2023-02-24T09:08:59;95940.88;;;8.94;100.00
6829;BME280;17930;48.592;8.868;2023-02-24T09:11:48;95936.19;;;9.32;100.00
6829;BME280;17930;48.592;8.868;2023-02-24T09:14:21;95942.69;;;9.48;100.00
6829;BME280;17930;48.592;8.868;2023-02-24T09:16:50;95938.63;;;9.74;100.00
6829;BME280;17930;48.592;8.868;2023-02-24T09:19:35;95934.09;;;10.24;100.00
6829;BME280;17930;48.592;8.868;2023-02-24T09:22:18;95920.16;;;10.69;100.00
6829;BME280;17930;48.592;8.868;2023-02-24T09:24:56;95926.72;;;11.50;100.00
6829;BME280;17930;48.592;8.868;2023-02-24T09:27:44;95922.78;;;13.16;100.00
6829;BME280;17930;48.592;8.868;2023-02-24T09:30:12;95928.16;;;13.44;100.00
6829;BME280;17930;48.592;8.868;2023-02-24T09:33:07;95929.63;;;14.13;100.00
6829;BME280;17930;48.592;8.868;2023-02-24T09:35:44;95933.88;;;13.63;100.00
6829;BME280;17930;48.592;8.868;2023-02-24T09:38:12;95929.41;;;13.47;100.00
6829;BME280;17930;48.592;8.868;2023-02-24T09:40:42;95926.66;;;13.35;100.00
6829;BME280;17930;48.592;8.868;2023-02-24T09:43:18;95929.56;;;13.33;100.00
6829;BME280;17930;48.592;8.868;2023-02-24T09:45:51;95926.16;;;13.08;100.00
6829;BME280;17930;48.592;8.868;2023-02-24T09:48:28;95925.84;;;13.18;100.00
6829;BME280;17930;48.592;8.868;2023-02-24T09:50:57;95917.31;;;12.31;100.00
6829;BME280;17930;48.592;8.868;2023-02-24T09:53:29;95924.72;;;12.29;100.00
6829;BME280;17930;48.592;8.868;2023-02-24T09:56:12;95918.25;;;11.97;100.00
6829;BME280;17930;48.592;8.868;2023-02-24T09:58:46;95907.59;;;12.15;100.00
6829;BME280;17930;48.592;8.868;2023-02-24T10:04:20;95907.63;;;12.24;100.00
6829;BME280;17930;48.592;8.868;2023-02-24T10:06:55;95908.47;;;12.49;100.00
6829;BME280;17930;48.592;8.868;2023-02-24T10:09:27;95909.50;;;12.40;100.00
6829;BME280;17930;48.592;8.868;2023-02-24T10:12:01;95894.66;;;12.57;100.00
6829;BME280;17930;48.592;8.868;2023-02-24T10:14:38;95898.69;;;12.80;100.00
6829;BME280;17930;48.592;8.868;2023-02-24T10:17:13;95894.88;;;12.94;100.00
6829;BME280;17930;48.592;8.868;2023-02-24T10:19:54;95889.75;;;12.81;100.00
6829;BME280;17930;48.592;8.868;2023-02-24T10:22:32;95889.19;;;12.37;100.00
6829;BME280;17930;48.592;8.868;2023-02-24T10:25:20;95888.97;;;12.17;100.00
6829;BME280;17930;48.592;8.868;2023-02-24T10:27:56;95878.69;;;12.20;100.00
6829;BME280;17930;48.592;8.868;2023-02-24T10:30:45;95876.56;;;11.92;100.00
6829;BME280;17930;48.592;8.868;2023-02-24T10:33:19;95875.31;;;11.81;100.00
6829;BME280;17930;48.592;8.868;2023-02-24T10:35:51;95868.13;;;11.95;100.00
6829;BME280;17930;48.592;8.868;2023-02-24T10:38:28;95870.94;;;12.07;100.00
6829;BME280;17930;48.592;8.868;2023-02-24T10:40:55;95867.59;;;12.15;100.00
6829;BME280;17930;48.592;8.868;2023-02-24T10:43:24;95868.25;;;11.90;100.00
6829;BME280;17930;48.592;8.868;2023-02-24T10:45:59;95868.63;;;11.75;100.00
6829;BME280;17930;48.592;8.868;2023-02-24T10:48:32;95858.38;;;11.78;100.00
6829;BME280;17930;48.592;8.868;2023-02-24T10:51:14;95859.66;;;11.59;100.00
6829;BME280;17930;48.592;8.868;2023-02-24T10:53:47;95870.84;;;11.38;100.00
6829;BME280;17930;48.592;8.868;2023-02-24T10:56:39;95855.13;;;11.29;100.00
6829;BME280;17930;48.592;8.868;2023-02-24T10:59:11;95857.63;;;11.13;100.00
6829;BME280;17930;48.592;8.868;2023-02-24T11:02:20;95859.19;;;11.14;100.00
6829;BME280;17930;48.592;8.868;2023-02-24T11:04:55;95851.75;;;10.85;100.00
6829;BME280;17930;48.592;8.868;2023-02-24T11:07:50;95851.44;;;10.65;100.00
6829;BME280;17930;48.592;8.868;2023-02-24T11:10:22;95842.34;;;10.49;100.00
6829;BME280;17930;48.592;8.868;2023-02-24T11:12:59;95843.16;;;10.50;100.00
6829;BME280;17930;48.592;8.868;2023-02-24T11:15:46;95824.41;;;10.48;100.00
6829;BME280;17930;48.592;8.868;2023-02-24T11:18:34;95831.34;;;10.52;100.00
6829;BME280;17930;48.592;8.868;2023-02-24T11:21:04;95829.91;;;10.46;100.00
6829;BME280;17930;48.592;8.868;2023-02-24T11:23:33;95820.56;;;10.45;100.00
6829;BME280;17930;48.592;8.868;2023-02-24T11:26:05;95813.72;;;10.36;100.00
6829;BME280;17930;48.592;8.868;2023-02-24T11:28:44;95808.59;;;10.44;100.00
6829;BME280;17930;48.592;8.868;2023-02-24T11:31:23;95805.63;;;10.59;100.00
6829;BME280;17930;48.592;8.868;2023-02-24T11:34:01;95801.50;;;10.58;100.00
6829;BME280;17930;48.592;8.868;2023-02-24T11:36:38;95795.72;;;10.83;100.00
6829;BME280;17930;48.592;8.868;2023-02-24T11:39:17;95792.03;;;10.84;100.00
6829;BME280;17930;48.592;8.868;2023-02-24T11:41:52;95781.44;;;11.32;100.00
6829;BME280;17930;48.592;8.868;2023-02-24T11:44:24;95770.44;;;11.44;100.00
6829;BME280;17930;48.592;8.868;2023-02-24T11:46:55;95758.75;;;11.63;100.00
6829;BME280;17930;48.592;8.868;2023-02-24T11:49:29;95752.56;;;11.98;100.00
6829;BME280;17930;48.592;8.868;2023-02-24T11:51:58;95757.44;;;11.91;100.00
6829;BME280;17930;48.592;8.868;2023-02-24T11:54:33;95732.72;;;11.97;100.00
6829;BME280;17930;48.592;8.868;2023-02-24T11:57:04;95727.84;;;12.37;100.00
6829;BME280;17930;48.592;8.868;2023-02-24T11:59:35;95724.25;;;13.01;100.00
6829;BME280;17930;48.592;8.868;2023-02-24T12:02:11;95727.28;;;13.65;100.00
6829;BME280;17930;48.592;8.868;2023-02-24T12:04:49;95736.47;;;13.42;100.00
6829;BME280;17930;48.592;8.868;2023-02-24T12:07:24;95725.81;;;13.84;100.00
6829;BME280;17930;48.592;8.868;2023-02-24T12:09:55;95723.38;;;13.42;100.00
6829;BME280;17930;48.592;8.868;2023-02-24T12:12:29;95723.41;;;13.71;100.00
6829;BME280;17930;48.592;8.868;2023-02-24T12:15:03;95718.66;;;13.65;100.00
6829;BME280;17930;48.592;8.868;2023-02-24T12:17:34;95711.47;;;13.82;100.00
6829;BME280;17930;48.592;8.868;2023-02-24T12:20:08;95717.09;;;13.72;100.00
6829;BME280;17930;48.592;8.868;2023-02-24T12:22:45;95717.00;;;13.15;100.00
6829;BME280;17930;48.592;8.868;2023-02-24T12:25:18;95708.56;;;13.01;100.00
6829;BME280;17930;48.592;8.868;2023-02-24T12:27:58;95709.81;;;12.70;100.00
6829;BME280;17930;48.592;8.868;2023-02-24T12:30:52;95708.44;;;12.55;100.00
6829;BME280;17930;48.592;8.868;2023-02-24T12:33:42;95697.69;;;12.31;100.00
6829;BME280;17930;48.592;8.868;2023-02-24T12:36:23;95692.13;;;12.58;100.00
6829;BME280;17930;48.592;8.868;2023-02-24T12:38:58;95690.63;;;12.40;100.00
6829;BME280;17930;48.592;8.868;2023-02-24T12:41:54;95690.94;;;12.47;100.00
6829;BME280;17930;48.592;8.868;2023-02-24T12:44:30;95679.50;;;12.77;100.00
6829;BME280;17930;48.592;8.868;2023-02-24T12:47:04;95675.06;;;12.27;100.00
6829;BME280;17930;48.592;8.868;2023-02-24T12:49:41;95679.34;;;11.81;100.00
6829;BME280;17930;48.592;8.868;2023-02-24T12:52:17;95670.91;;;11.84;100.00
6829;BME280;17930;48.592;8.868;2023-02-24T12:54:52;95663.38;;;12.41;100.00
6829;BME280;17930;48.592;8.868;2023-02-24T12:57:27;95660.09;;;12.78;100.00
6829;BME280;17930;48.592;8.868;2023-02-24T13:00:05;95655.75;;;12.99;100.00
6829;BME280;17930;48.592;8.868;2023-02-24T13:02:44;95650.00;;;13.22;100.00
6829;BME280;17930;48.592;8.868;2023-02-24T13:05:21;95644.78;;;13.71;100.00
6829;BME280;17930;48.592;8.868;2023-02-24T13:08:10;95638.84;;;13.62;100.00
6829;BME280;17930;48.592;8.868;2023-02-24T13:10:44;95650.59;;;13.56;100.00
6829;BME280;17930;48.592;8.868;2023-02-24T13:13:17;95645.56;;;13.06;100.00
6829;BME280;17930;48.592;8.868;2023-02-24T13:15:51;95638.06;;;13.33;100.00
6829;BME280;17930;48.592;8.868;2023-02-24T13:18:25;95622.19;;;13.38;100.00
6829;BME280;17930;48.592;8.868;2023-02-24T13:21:05;95622.56;;;13.20;100.00
6829;BME280;17930;48.592;8.868;2023-02-24T13:23:34;95624.56;;;13.23;100.00
6829;BME280;17930;48.592;8.868;2023-02-24T13:26:02;95631.69;;;13.42;100.00
6829;BME280;17930;48.592;8.868;2023-02-24T13:28:30;95631.63;;;13.31;100.00
6829;BME280;17930;48.592;8.868;2023-02-24T13:31:02;95631.47;;;12.90;100.00
6829;BME280;17930;48.592;8.868;2023-02-24T13:33:32;95617.59;;;12.81;100.00
6829;BME280;17930;48.592;8.868;2023-02-24T13:36:12;95614.28;;;12.55;100.00
6829;BME280;17930;48.592;8.868;2023-02-24T13:38:43;95610.56;;;12.73;100.00
6829;BME280;17930;48.592;8.868;2023-02-24T13:41:36;95607.34;;;12.59;100.00
6829;BME280;17930;48.592;8.868;2023-02-24T13:44:21;95601.41;;;12.33;100.00